sensor_id;sensor_type;location;lat;lon;timestamp;temperature;humidity
16907;DHT22;8570;52.380;4.654;2024-02-04T00:04:14;9.40;99.90
16907;DHT22;8570;52.380;4.654;2024-02-04T00:09:17;9.40;99.90
16907;DHT22;8570;52.380;4.654;2024-02-04T00:14:21;9.40;99.90
16907;DHT22;8570;52.380;4.654;2024-02-04T00:19:24;9.50;99.90
16907;DHT22;8570;52.380;4.654;2024-02-04T00:24:30;9.40;99.90
16907;DHT22;8570;52.380;4.654;2024-02-04T00:29:32;9.40;99.90
16907;DHT22;8570;52.380;4.654;2024-02-04T00:34:34;9.40;99.90
16907;DHT22;8570;52.380;4.654;2024-02-04T00:39:39;9.30;99.90
16907;DHT22;8570;52.380;4.654;2024-02-04T00:44:47;9.30;99.90
16907;DHT22;8570;52.380;4.654;2024-02-04T00:49:49;9.20;99.90
16907;DHT22;8570;52.380;4.654;2024-02-04T00:54:53;9.10;99.90
16907;DHT22;8570;52.380;4.654;2024-02-04T00:59:54;9.00;99.90
16907;DHT22;8570;52.380;4.654;2024-02-04T01:04:56;9.00;99.90
16907;DHT22;8570;52.380;4.654;2024-02-04T01:10:03;8.90;99.90
16907;DHT22;8570;52.380;4.654;2024-02-04T01:15:06;8.90;99.90
16907;DHT22;8570;52.380;4.654;2024-02-04T01:20:09;8.90;99.90
16907;DHT22;8570;52.380;4.654;2024-02-04T01:25:14;8.80;99.90
16907;DHT22;8570;52.380;4.654;2024-02-04T01:30:16;8.80;99.90
16907;DHT22;8570;52.380;4.654;2024-02-04T01:35:19;8.80;99.90
16907;DHT22;8570;52.380;4.654;2024-02-04T01:40:23;8.70;99.90
16907;DHT22;8570;52.380;4.654;2024-02-04T01:45:31;8.70;99.90
16907;DHT22;8570;52.380;4.654;2024-02-04T01:50:34;8.70;99.90
16907;DHT22;8570;52.380;4.654;2024-02-04T01:55:41;8.70;99.90
16907;DHT22;8570;52.380;4.654;2024-02-04T02:00:44;8.70;99.90
16907;DHT22;8570;52.380;4.654;2024-02-04T02:05:46;8.70;99.90
16907;DHT22;8570;52.380;4.654;2024-02-04T02:10:51;8.70;99.90
16907;DHT22;8570;52.380;4.654;2024-02-04T02:16:05;8.70;99.90
16907;DHT22;8570;52.380;4.654;2024-02-04T02:21:19;8.70;99.90
16907;DHT22;8570;52.380;4.654;2024-02-04T02:26:30;8.60;99.90
16907;DHT22;8570;52.380;4.654;2024-02-04T02:31:33;8.60;99.90
16907;DHT22;8570;52.380;4.654;2024-02-04T02:36:40;8.50;99.90
16907;DHT22;8570;52.380;4.654;2024-02-04T02:41:49;8.40;99.90
16907;DHT22;8570;52.380;4.654;2024-02-04T02:46:52;8.40;99.90
16907;DHT22;8570;52.380;4.654;2024-02-04T02:51:56;8.40;99.90
16907;DHT22;8570;52.380;4.654;2024-02-04T02:57:00;8.40;99.90
16907;DHT22;8570;52.380;4.654;2024-02-04T03:02:02;8.40;99.90
16907;DHT22;8570;52.380;4.654;2024-02-04T03:07:04;8.40;99.90
16907;DHT22;8570;52.380;4.654;2024-02-04T03:12:09;8.40;99.90
16907;DHT22;8570;52.380;4.654;2024-02-04T03:17:11;8.40;99.90
16907;DHT22;8570;52.380;4.654;2024-02-04T03:22:13;8.40;99.90
16907;DHT22;8570;52.380;4.654;2024-02-04T03:27:17;8.30;99.90
16907;DHT22;8570;52.380;4.654;2024-02-04T03:32:19;8.20;99.90
16907;DHT22;8570;52.380;4.654;2024-02-04T03:37:21;8.20;99.90
16907;DHT22;8570;52.380;4.654;2024-02-04T03:42:24;8.20;99.90
16907;DHT22;8570;52.380;4.654;2024-02-04T03:47:26;8.20;99.90
16907;DHT22;8570;52.380;4.654;2024-02-04T03:52:28;8.20;99.90
16907;DHT22;8570;52.380;4.654;2024-02-04T03:57:32;8.20;99.90
16907;DHT22;8570;52.380;4.654;2024-02-04T04:02:37;8.20;99.90
16907;DHT22;8570;52.380;4.654;2024-02-04T04:07:38;8.20;99.90
16907;DHT22;8570;52.380;4.654;2024-02-04T04:12:42;8.20;99.90
16907;DHT22;8570;52.380;4.654;2024-02-04T04:17:44;8.20;99.90
16907;DHT22;8570;52.380;4.654;2024-02-04T04:22:46;8.20;99.90
16907;DHT22;8570;52.380;4.654;2024-02-04T04:27:50;8.20;99.90
16907;DHT22;8570;52.380;4.654;2024-02-04T04:32:52;8.30;99.90
16907;DHT22;8570;52.380;4.654;2024-02-04T04:37:54;8.30;99.90
16907;DHT22;8570;52.380;4.654;2024-02-04T04:42:57;8.30;99.90
16907;DHT22;8570;52.380;4.654;2024-02-04T04:47:59;8.30;99.90
16907;DHT22;8570;52.380;4.654;2024-02-04T04:53:01;8.30;99.90
16907;DHT22;8570;52.380;4.654;2024-02-04T04:58:08;8.30;99.90
16907;DHT22;8570;52.380;4.654;2024-02-04T05:03:10;8.30;99.90
16907;DHT22;8570;52.380;4.654;2024-02-04T05:08:24;8.30;99.90
16907;DHT22;8570;52.380;4.654;2024-02-04T05:13:27;8.30;99.90
16907;DHT22;8570;52.380;4.654;2024-02-04T05:18:29;8.30;99.90
16907;DHT22;8570;52.380;4.654;2024-02-04T05:23:31;8.20;99.90
16907;DHT22;8570;52.380;4.654;2024-02-04T05:28:34;8.30;99.90
16907;DHT22;8570;52.380;4.654;2024-02-04T05:33:38;8.30;99.90
16907;DHT22;8570;52.380;4.654;2024-02-04T05:38:44;8.30;99.90
16907;DHT22;8570;52.380;4.654;2024-02-04T05:43:47;8.30;99.90
16907;DHT22;8570;52.380;4.654;2024-02-04T05:48:49;8.30;99.90
16907;DHT22;8570;52.380;4.654;2024-02-04T05:53:51;8.30;99.90
16907;DHT22;8570;52.380;4.654;2024-02-04T05:58:54;8.30;99.90
16907;DHT22;8570;52.380;4.654;2024-02-04T06:03:56;8.40;99.90
16907;DHT22;8570;52.380;4.654;2024-02-04T06:08:58;8.40;99.90
16907;DHT22;8570;52.380;4.654;2024-02-04T06:14:02;8.40;99.90
16907;DHT22;8570;52.380;4.654;2024-02-04T06:19:06;8.50;99.90
16907;DHT22;8570;52.380;4.654;2024-02-04T06:24:09;8.50;99.90
16907;DHT22;8570;52.380;4.654;2024-02-04T06:29:13;8.50;99.90
16907;DHT22;8570;52.380;4.654;2024-02-04T06:34:15;8.60;99.90
16907;DHT22;8570;52.380;4.654;2024-02-04T06:39:17;8.60;99.90
16907;DHT22;8570;52.380;4.654;2024-02-04T06:44:20;8.70;99.90
16907;DHT22;8570;52.380;4.654;2024-02-04T06:49:22;8.70;99.90
16907;DHT22;8570;52.380;4.654;2024-02-04T06:54:24;8.70;99.90
16907;DHT22;8570;52.380;4.654;2024-02-04T06:59:27;8.70;99.90
16907;DHT22;8570;52.380;4.654;2024-02-04T07:04:29;8.80;99.90
16907;DHT22;8570;52.380;4.654;2024-02-04T07:09:31;8.80;99.90
16907;DHT22;8570;52.380;4.654;2024-02-04T07:14:35;8.80;99.90
16907;DHT22;8570;52.380;4.654;2024-02-04T07:19:36;8.80;99.90
16907;DHT22;8570;52.380;4.654;2024-02-04T07:24:38;8.80;99.90
16907;DHT22;8570;52.380;4.654;2024-02-04T07:29:44;8.80;99.90
16907;DHT22;8570;52.380;4.654;2024-02-04T07:34:48;8.80;99.90
16907;DHT22;8570;52.380;4.654;2024-02-04T07:39:53;8.80;99.90
16907;DHT22;8570;52.380;4.654;2024-02-04T07:44:56;8.90;99.90
16907;DHT22;8570;52.380;4.654;2024-02-04T07:49:58;8.90;99.90
16907;DHT22;8570;52.380;4.654;2024-02-04T07:55:00;8.90;99.90
16907;DHT22;8570;52.380;4.654;2024-02-04T08:00:09;8.90;99.90
16907;DHT22;8570;52.380;4.654;2024-02-04T08:05:14;8.90;99.90
16907;DHT22;8570;52.380;4.654;2024-02-04T08:10:16;8.90;99.90
16907;DHT22;8570;52.380;4.654;2024-02-04T08:15:22;9.00;99.90
16907;DHT22;8570;52.380;4.654;2024-02-04T08:20:25;9.00;99.90
16907;DHT22;8570;52.380;4.654;2024-02-04T08:25:27;9.00;99.90
16907;DHT22;8570;52.380;4.654;2024-02-04T08:30:30;9.10;99.90
16907;DHT22;8570;52.380;4.654;2024-02-04T08:35:32;9.20;99.90
16907;DHT22;8570;52.380;4.654;2024-02-04T08:40:33;9.20;99.90
16907;DHT22;8570;52.380;4.654;2024-02-04T08:45:37;9.20;99.90
16907;DHT22;8570;52.380;4.654;2024-02-04T08:50:39;9.20;99.90
16907;DHT22;8570;52.380;4.654;2024-02-04T08:55:41;9.20;99.90
16907;DHT22;8570;52.380;4.654;2024-02-04T09:00:44;9.20;99.90
16907;DHT22;8570;52.380;4.654;2024-02-04T09:05:46;9.20;99.90
16907;DHT22;8570;52.380;4.654;2024-02-04T09:10:48;9.20;99.90
16907;DHT22;8570;52.380;4.654;2024-02-04T09:15:51;9.20;99.90
16907;DHT22;8570;52.380;4.654;2024-02-04T09:20:54;9.30;99.90
16907;DHT22;8570;52.380;4.654;2024-02-04T09:25:56;9.30;99.90
16907;DHT22;8570;52.380;4.654;2024-02-04T09:30:59;9.30;99.90
16907;DHT22;8570;52.380;4.654;2024-02-04T09:36:01;9.30;99.90
16907;DHT22;8570;52.380;4.654;2024-02-04T09:41:03;9.30;99.90
16907;DHT22;8570;52.380;4.654;2024-02-04T09:46:07;9.40;99.90
16907;DHT22;8570;52.380;4.654;2024-02-04T09:51:09;9.40;99.90
16907;DHT22;8570;52.380;4.654;2024-02-04T09:56:11;9.40;99.90
16907;DHT22;8570;52.380;4.654;2024-02-04T10:01:15;9.40;99.90
16907;DHT22;8570;52.380;4.654;2024-02-04T10:06:19;9.40;99.90
16907;DHT22;8570;52.380;4.654;2024-02-04T10:11:21;9.40;99.90
16907;DHT22;8570;52.380;4.654;2024-02-04T10:16:25;9.50;99.90
16907;DHT22;8570;52.380;4.654;2024-02-04T10:21:27;9.50;99.90
16907;DHT22;8570;52.380;4.654;2024-02-04T10:26:29;9.50;99.90
16907;DHT22;8570;52.380;4.654;2024-02-04T10:31:35;9.50;99.90
16907;DHT22;8570;52.380;4.654;2024-02-04T10:36:37;9.50;99.90
16907;DHT22;8570;52.380;4.654;2024-02-04T10:41:48;9.50;99.90
16907;DHT22;8570;52.380;4.654;2024-02-04T10:46:52;9.60;99.90
16907;DHT22;8570;52.380;4.654;2024-02-04T10:51:56;9.50;99.90
16907;DHT22;8570;52.380;4.654;2024-02-04T10:57:05;9.50;99.90
16907;DHT22;8570;52.380;4.654;2024-02-04T11:02:10;9.50;99.90
16907;DHT22;8570;52.380;4.654;2024-02-04T11:07:14;9.50;99.90
16907;DHT22;8570;52.380;4.654;2024-02-04T11:12:18;9.50;99.90
16907;DHT22;8570;52.380;4.654;2024-02-04T11:17:42;9.60;99.90
16907;DHT22;8570;52.380;4.654;2024-02-04T11:23:01;9.70;99.90
16907;DHT22;8570;52.380;4.654;2024-02-04T11:28:08;9.70;99.90
16907;DHT22;8570;52.380;4.654;2024-02-04T11:33:12;9.70;99.90
16907;DHT22;8570;52.380;4.654;2024-02-04T11:38:17;9.70;99.90
16907;DHT22;8570;52.380;4.654;2024-02-04T11:43:23;9.70;99.90
16907;DHT22;8570;52.380;4.654;2024-02-04T11:48:33;9.70;99.90
16907;DHT22;8570;52.380;4.654;2024-02-04T11:53:37;9.70;99.90
16907;DHT22;8570;52.380;4.654;2024-02-04T11:58:39;9.70;99.90
16907;DHT22;8570;52.380;4.654;2024-02-04T12:03:43;9.70;99.90
16907;DHT22;8570;52.380;4.654;2024-02-04T12:08:45;9.80;99.90
16907;DHT22;8570;52.380;4.654;2024-02-04T12:13:47;9.80;99.90
16907;DHT22;8570;52.380;4.654;2024-02-04T12:18:52;9.80;99.90
16907;DHT22;8570;52.380;4.654;2024-02-04T12:23:55;9.80;99.90
16907;DHT22;8570;52.380;4.654;2024-02-04T12:28:58;9.80;99.90
16907;DHT22;8570;52.380;4.654;2024-02-04T12:34:01;9.70;99.90
16907;DHT22;8570;52.380;4.654;2024-02-04T12:39:03;9.70;99.90
16907;DHT22;8570;52.380;4.654;2024-02-04T12:44:08;9.70;99.90
16907;DHT22;8570;52.380;4.654;2024-02-04T12:49:18;9.60;99.90
16907;DHT22;8570;52.380;4.654;2024-02-04T12:54:20;9.60;99.90
16907;DHT22;8570;52.380;4.654;2024-02-04T12:59:26;9.60;99.90
16907;DHT22;8570;52.380;4.654;2024-02-04T13:04:34;9.60;99.90
16907;DHT22;8570;52.380;4.654;2024-02-04T13:09:40;9.60;99.90
16907;DHT22;8570;52.380;4.654;2024-02-04T13:14:42;9.60;99.90
16907;DHT22;8570;52.380;4.654;2024-02-04T13:19:48;9.60;99.90
16907;DHT22;8570;52.380;4.654;2024-02-04T13:24:50;9.70;99.90
16907;DHT22;8570;52.380;4.654;2024-02-04T13:29:51;9.70;99.90
16907;DHT22;8570;52.380;4.654;2024-02-04T13:34:55;9.70;99.90
16907;DHT22;8570;52.380;4.654;2024-02-04T13:39:57;9.70;99.90
16907;DHT22;8570;52.380;4.654;2024-02-04T13:44:59;9.70;99.90
16907;DHT22;8570;52.380;4.654;2024-02-04T13:50:02;9.80;99.90
16907;DHT22;8570;52.380;4.654;2024-02-04T13:55:05;9.80;99.90
16907;DHT22;8570;52.380;4.654;2024-02-04T14:00:08;9.80;99.90
16907;DHT22;8570;52.380;4.654;2024-02-04T14:05:11;9.80;99.90
16907;DHT22;8570;52.380;4.654;2024-02-04T14:10:13;9.80;99.90
16907;DHT22;8570;52.380;4.654;2024-02-04T14:15:15;9.70;99.90
16907;DHT22;8570;52.380;4.654;2024-02-04T14:20:19;9.70;99.90
16907;DHT22;8570;52.380;4.654;2024-02-04T14:25:21;9.70;99.90
16907;DHT22;8570;52.380;4.654;2024-02-04T14:30:24;9.70;99.90
16907;DHT22;8570;52.380;4.654;2024-02-04T14:35:27;9.60;99.90
16907;DHT22;8570;52.380;4.654;2024-02-04T14:40:29;9.60;99.90
16907;DHT22;8570;52.380;4.654;2024-02-04T14:45:31;9.70;99.90
16907;DHT22;8570;52.380;4.654;2024-02-04T14:50:34;9.60;99.90
16907;DHT22;8570;52.380;4.654;2024-02-04T14:55:36;9.60;99.90
16907;DHT22;8570;52.380;4.654;2024-02-04T15:00:38;9.70;99.90
16907;DHT22;8570;52.380;4.654;2024-02-04T15:05:41;9.70;99.90
16907;DHT22;8570;52.380;4.654;2024-02-04T15:10:43;9.70;99.90
16907;DHT22;8570;52.380;4.654;2024-02-04T15:15:45;9.80;99.90
16907;DHT22;8570;52.380;4.654;2024-02-04T15:20:49;9.80;99.90
16907;DHT22;8570;52.380;4.654;2024-02-04T15:25:52;9.80;99.90
16907;DHT22;8570;52.380;4.654;2024-02-04T15:30:54;9.80;99.90
16907;DHT22;8570;52.380;4.654;2024-02-04T15:35:58;9.80;99.90
16907;DHT22;8570;52.380;4.654;2024-02-04T15:41:01;9.90;99.90
16907;DHT22;8570;52.380;4.654;2024-02-04T15:46:07;9.80;99.90
16907;DHT22;8570;52.380;4.654;2024-02-04T15:51:11;9.80;99.90
16907;DHT22;8570;52.380;4.654;2024-02-04T15:56:16;9.70;99.90
16907;DHT22;8570;52.380;4.654;2024-02-04T16:01:21;9.70;99.90
16907;DHT22;8570;52.380;4.654;2024-02-04T16:06:27;9.60;99.90
16907;DHT22;8570;52.380;4.654;2024-02-04T16:11:35;9.60;99.90
16907;DHT22;8570;52.380;4.654;2024-02-04T16:16:42;9.50;99.90
16907;DHT22;8570;52.380;4.654;2024-02-04T16:21:47;9.40;99.90
16907;DHT22;8570;52.380;4.654;2024-02-04T16:26:54;9.40;99.90
16907;DHT22;8570;52.380;4.654;2024-02-04T16:31:59;9.40;99.90
16907;DHT22;8570;52.380;4.654;2024-02-04T16:37:02;9.40;99.90
16907;DHT22;8570;52.380;4.654;2024-02-04T16:42:05;9.40;99.90
16907;DHT22;8570;52.380;4.654;2024-02-04T16:47:09;9.30;99.90
16907;DHT22;8570;52.380;4.654;2024-02-04T16:52:12;9.30;99.90
16907;DHT22;8570;52.380;4.654;2024-02-04T16:57:15;9.30;99.90
16907;DHT22;8570;52.380;4.654;2024-02-04T17:02:16;9.30;99.90
16907;DHT22;8570;52.380;4.654;2024-02-04T17:07:24;9.30;99.90
16907;DHT22;8570;52.380;4.654;2024-02-04T17:12:26;9.30;99.90
16907;DHT22;8570;52.380;4.654;2024-02-04T17:17:29;9.30;99.90
16907;DHT22;8570;52.380;4.654;2024-02-04T17:22:36;9.30;99.90
16907;DHT22;8570;52.380;4.654;2024-02-04T17:27:40;9.30;99.90
16907;DHT22;8570;52.380;4.654;2024-02-04T17:32:43;9.30;99.90
16907;DHT22;8570;52.380;4.654;2024-02-04T17:37:49;9.30;99.90
16907;DHT22;8570;52.380;4.654;2024-02-04T17:42:51;9.30;99.90
16907;DHT22;8570;52.380;4.654;2024-02-04T17:47:53;9.30;99.90
16907;DHT22;8570;52.380;4.654;2024-02-04T17:52:57;9.30;99.90
16907;DHT22;8570;52.380;4.654;2024-02-04T17:57:59;9.30;99.90
16907;DHT22;8570;52.380;4.654;2024-02-04T18:03:03;9.30;99.90
16907;DHT22;8570;52.380;4.654;2024-02-04T18:08:08;9.20;99.90
16907;DHT22;8570;52.380;4.654;2024-02-04T18:13:09;9.20;99.90
16907;DHT22;8570;52.380;4.654;2024-02-04T18:18:13;9.20;99.90
16907;DHT22;8570;52.380;4.654;2024-02-04T18:23:17;9.20;99.90
16907;DHT22;8570;52.380;4.654;2024-02-04T18:28:18;9.20;99.90
16907;DHT22;8570;52.380;4.654;2024-02-04T18:33:20;9.20;99.90
16907;DHT22;8570;52.380;4.654;2024-02-04T18:38:23;9.30;99.90
16907;DHT22;8570;52.380;4.654;2024-02-04T18:43:25;9.40;99.90
16907;DHT22;8570;52.380;4.654;2024-02-04T18:48:27;9.40;99.90
16907;DHT22;8570;52.380;4.654;2024-02-04T18:53:31;9.40;99.90
16907;DHT22;8570;52.380;4.654;2024-02-04T18:58:33;9.60;99.90
16907;DHT22;8570;52.380;4.654;2024-02-04T19:03:35;9.60;99.90
16907;DHT22;8570;52.380;4.654;2024-02-04T19:08:41;9.70;99.90
16907;DHT22;8570;52.380;4.654;2024-02-04T19:13:43;9.80;99.90
16907;DHT22;8570;52.380;4.654;2024-02-04T19:18:45;9.80;99.90
16907;DHT22;8570;52.380;4.654;2024-02-04T19:23:48;9.80;99.90
16907;DHT22;8570;52.380;4.654;2024-02-04T19:28:50;9.80;99.90
16907;DHT22;8570;52.380;4.654;2024-02-04T19:33:52;9.80;99.90
16907;DHT22;8570;52.380;4.654;2024-02-04T19:38:55;9.80;99.90
16907;DHT22;8570;52.380;4.654;2024-02-04T19:43:57;9.80;99.90
16907;DHT22;8570;52.380;4.654;2024-02-04T19:48:59;9.80;99.90
16907;DHT22;8570;52.380;4.654;2024-02-04T19:54:03;9.70;99.90
16907;DHT22;8570;52.380;4.654;2024-02-04T19:59:05;9.70;99.90
16907;DHT22;8570;52.380;4.654;2024-02-04T20:04:07;9.70;99.90
16907;DHT22;8570;52.380;4.654;2024-02-04T20:09:11;9.70;99.90
16907;DHT22;8570;52.380;4.654;2024-02-04T20:14:12;9.70;99.90
16907;DHT22;8570;52.380;4.654;2024-02-04T20:19:14;9.60;99.90
16907;DHT22;8570;52.380;4.654;2024-02-04T20:24:18;9.60;99.90
16907;DHT22;8570;52.380;4.654;2024-02-04T20:29:20;9.60;99.90
16907;DHT22;8570;52.380;4.654;2024-02-04T20:34:22;9.60;99.90
16907;DHT22;8570;52.380;4.654;2024-02-04T20:39:25;9.50;99.90
16907;DHT22;8570;52.380;4.654;2024-02-04T20:44:28;9.50;99.90
16907;DHT22;8570;52.380;4.654;2024-02-04T20:49:30;9.50;99.90
16907;DHT22;8570;52.380;4.654;2024-02-04T20:54:33;9.50;99.90
16907;DHT22;8570;52.380;4.654;2024-02-04T20:59:35;9.50;99.90
16907;DHT22;8570;52.380;4.654;2024-02-04T21:04:37;9.50;99.90
16907;DHT22;8570;52.380;4.654;2024-02-04T21:09:40;9.50;99.90
16907;DHT22;8570;52.380;4.654;2024-02-04T21:14:42;9.50;99.90
16907;DHT22;8570;52.380;4.654;2024-02-04T21:19:44;9.50;99.90
16907;DHT22;8570;52.380;4.654;2024-02-04T21:24:47;9.50;99.90
16907;DHT22;8570;52.380;4.654;2024-02-04T21:29:50;9.60;99.90
16907;DHT22;8570;52.380;4.654;2024-02-04T21:34:54;9.60;99.90
16907;DHT22;8570;52.380;4.654;2024-02-04T21:39:57;9.60;99.90
16907;DHT22;8570;52.380;4.654;2024-02-04T21:44:59;9.70;99.90
16907;DHT22;8570;52.380;4.654;2024-02-04T21:50:01;9.70;99.90
16907;DHT22;8570;52.380;4.654;2024-02-04T21:55:06;9.70;99.90
16907;DHT22;8570;52.380;4.654;2024-02-04T22:00:09;9.60;99.90
16907;DHT22;8570;52.380;4.654;2024-02-04T22:05:12;9.60;99.90
16907;DHT22;8570;52.380;4.654;2024-02-04T22:10:15;9.60;99.90
16907;DHT22;8570;52.380;4.654;2024-02-04T22:15:17;9.60;99.90
16907;DHT22;8570;52.380;4.654;2024-02-04T22:20:19;9.60;99.90
16907;DHT22;8570;52.380;4.654;2024-02-04T22:25:22;9.60;99.90
16907;DHT22;8570;52.380;4.654;2024-02-04T22:30:27;9.60;99.90
16907;DHT22;8570;52.380;4.654;2024-02-04T22:35:29;9.60;99.90
16907;DHT22;8570;52.380;4.654;2024-02-04T22:40:32;9.60;99.90
16907;DHT22;8570;52.380;4.654;2024-02-04T22:45:34;9.60;99.90
16907;DHT22;8570;52.380;4.654;2024-02-04T22:50:37;9.70;99.90
16907;DHT22;8570;52.380;4.654;2024-02-04T22:55:45;9.70;99.90
16907;DHT22;8570;52.380;4.654;2024-02-04T23:00:46;9.70;99.90
16907;DHT22;8570;52.380;4.654;2024-02-04T23:05:49;9.70;99.90
16907;DHT22;8570;52.380;4.654;2024-02-04T23:10:53;9.60;99.90
16907;DHT22;8570;52.380;4.654;2024-02-04T23:15:55;9.70;99.90
16907;DHT22;8570;52.380;4.654;2024-02-04T23:20:56;9.70;99.90
16907;DHT22;8570;52.380;4.654;2024-02-04T23:26:00;9.70;99.90
16907;DHT22;8570;52.380;4.654;2024-02-04T23:31:02;9.70;99.90
16907;DHT22;8570;52.380;4.654;2024-02-04T23:36:05;9.70;99.90
16907;DHT22;8570;52.380;4.654;2024-02-04T23:41:08;9.70;99.90
16907;DHT22;8570;52.380;4.654;2024-02-04T23:46:10;9.70;99.90
16907;DHT22;8570;52.380;4.654;2024-02-04T23:51:15;9.60;99.90
16907;DHT22;8570;52.380;4.654;2024-02-04T23:56:21;9.60;99.90
